sensor_id;sensor_type;location;lat;lon;timestamp;P1;P2;P0
80413;PMS5003;69758;52.580;13.068;2024-02-21T00:01:13;11;9;
80413;PMS5003;69758;52.580;13.068;2024-02-21T00:03:34;12;12;
80413;PMS5003;69758;52.580;13.068;2024-02-21T00:06:00;8;8;
80413;PMS5003;69758;52.580;13.068;2024-02-21T00:08:26;11;11;
80413;PMS5003;69758;52.580;13.068;2024-02-21T00:10:52;11;11;
80413;PMS5003;69758;52.580;13.068;2024-02-21T00:13:18;8;8;
80413;PMS5003;69758;52.580;13.068;2024-02-21T00:15:43;14;12;
80413;PMS5003;69758;52.580;13.068;2024-02-21T00:18:09;8;8;
80413;PMS5003;69758;52.580;13.068;2024-02-21T00:20:34;12;12;
80413;PMS5003;69758;52.580;13.068;2024-02-21T00:22:59;7;7;
80413;PMS5003;69758;52.580;13.068;2024-02-21T00:25:25;8;8;
80413;PMS5003;69758;52.580;13.068;2024-02-21T00:27:50;7;7;
80413;PMS5003;69758;52.580;13.068;2024-02-21T00:30:15;8;7;
80413;PMS5003;69758;52.580;13.068;2024-02-21T00:32:41;11;10;
80413;PMS5003;69758;52.580;13.068;2024-02-21T00:35:06;8;8;
80413;PMS5003;69758;52.580;13.068;2024-02-21T00:37:31;9;9;
80413;PMS5003;69758;52.580;13.068;2024-02-21T00:39:56;9;8;
80413;PMS5003;69758;52.580;13.068;2024-02-21T00:42:22;10;10;
80413;PMS5003;69758;52.580;13.068;2024-02-21T00:44:47;8;8;
80413;PMS5003;69758;52.580;13.068;2024-02-21T00:47:12;8;7;
80413;PMS5003;69758;52.580;13.068;2024-02-21T00:49:38;10;8;
80413;PMS5003;69758;52.580;13.068;2024-02-21T00:52:03;11;11;
80413;PMS5003;69758;52.580;13.068;2024-02-21T00:54:29;11;8;
80413;PMS5003;69758;52.580;13.068;2024-02-21T00:56:55;7;6;
80413;PMS5003;69758;52.580;13.068;2024-02-21T00:59:20;9;8;
80413;PMS5003;69758;52.580;13.068;2024-02-21T01:01:46;12;10;
80413;PMS5003;69758;52.580;13.068;2024-02-21T01:04:12;7;6;
80413;PMS5003;69758;52.580;13.068;2024-02-21T01:06:38;10;10;
80413;PMS5003;69758;52.580;13.068;2024-02-21T01:09:02;10;7;
80413;PMS5003;69758;52.580;13.068;2024-02-21T01:11:27;8;7;
80413;PMS5003;69758;52.580;13.068;2024-02-21T01:13:53;12;11;
80413;PMS5003;69758;52.580;13.068;2024-02-21T01:16:18;6;6;
80413;PMS5003;69758;52.580;13.068;2024-02-21T01:18:43;7;7;
80413;PMS5003;69758;52.580;13.068;2024-02-21T01:21:09;11;9;
80413;PMS5003;69758;52.580;13.068;2024-02-21T01:23:35;7;7;
80413;PMS5003;69758;52.580;13.068;2024-02-21T01:26:00;8;8;
80413;PMS5003;69758;52.580;13.068;2024-02-21T01:28:25;8;7;
80413;PMS5003;69758;52.580;13.068;2024-02-21T01:30:51;6;6;
80413;PMS5003;69758;52.580;13.068;2024-02-21T01:33:16;10;7;
80413;PMS5003;69758;52.580;13.068;2024-02-21T01:35:41;6;6;
80413;PMS5003;69758;52.580;13.068;2024-02-21T01:38:07;7;7;
80413;PMS5003;69758;52.580;13.068;2024-02-21T01:40:32;9;8;
80413;PMS5003;69758;52.580;13.068;2024-02-21T01:42:57;8;6;
80413;PMS5003;69758;52.580;13.068;2024-02-21T01:45:23;9;8;
80413;PMS5003;69758;52.580;13.068;2024-02-21T01:47:48;8;8;
80413;PMS5003;69758;52.580;13.068;2024-02-21T01:50:13;11;9;
80413;PMS5003;69758;52.580;13.068;2024-02-21T01:52:39;12;7;
80413;PMS5003;69758;52.580;13.068;2024-02-21T01:55:05;7;6;
80413;PMS5003;69758;52.580;13.068;2024-02-21T01:57:30;10;10;
80413;PMS5003;69758;52.580;13.068;2024-02-21T01:59:55;13;11;
80413;PMS5003;69758;52.580;13.068;2024-02-21T02:02:20;9;6;
80413;PMS5003;69758;52.580;13.068;2024-02-21T02:04:45;9;7;
80413;PMS5003;69758;52.580;13.068;2024-02-21T02:07:11;8;7;
80413;PMS5003;69758;52.580;13.068;2024-02-21T02:09:36;10;8;
80413;PMS5003;69758;52.580;13.068;2024-02-21T02:12:01;14;12;
80413;PMS5003;69758;52.580;13.068;2024-02-21T02:14:27;10;8;
80413;PMS5003;69758;52.580;13.068;2024-02-21T02:16:52;9;8;
80413;PMS5003;69758;52.580;13.068;2024-02-21T02:19:17;11;7;
80413;PMS5003;69758;52.580;13.068;2024-02-21T02:21:45;8;8;
80413;PMS5003;69758;52.580;13.068;2024-02-21T02:24:08;13;11;
80413;PMS5003;69758;52.580;13.068;2024-02-21T02:26:33;7;7;
80413;PMS5003;69758;52.580;13.068;2024-02-21T02:29:00;12;8;
80413;PMS5003;69758;52.580;13.068;2024-02-21T02:31:24;8;8;
80413;PMS5003;69758;52.580;13.068;2024-02-21T02:33:50;8;7;
80413;PMS5003;69758;52.580;13.068;2024-02-21T02:36:16;6;5;
80413;PMS5003;69758;52.580;13.068;2024-02-21T02:38:42;8;8;
80413;PMS5003;69758;52.580;13.068;2024-02-21T02:41:07;11;11;
80413;PMS5003;69758;52.580;13.068;2024-02-21T02:43:33;10;9;
80413;PMS5003;69758;52.580;13.068;2024-02-21T02:45:58;14;12;
80413;PMS5003;69758;52.580;13.068;2024-02-21T02:48:23;12;10;
80413;PMS5003;69758;52.580;13.068;2024-02-21T02:50:49;12;11;
80413;PMS5003;69758;52.580;13.068;2024-02-21T02:53:14;10;7;
80413;PMS5003;69758;52.580;13.068;2024-02-21T02:55:40;12;10;
80413;PMS5003;69758;52.580;13.068;2024-02-21T02:58:05;10;7;
80413;PMS5003;69758;52.580;13.068;2024-02-21T03:00:30;10;8;
80413;PMS5003;69758;52.580;13.068;2024-02-21T03:02:56;8;8;
80413;PMS5003;69758;52.580;13.068;2024-02-21T03:05:21;11;10;
80413;PMS5003;69758;52.580;13.068;2024-02-21T03:07:46;12;11;
80413;PMS5003;69758;52.580;13.068;2024-02-21T03:10:12;11;10;
80413;PMS5003;69758;52.580;13.068;2024-02-21T03:12:37;10;8;
80413;PMS5003;69758;52.580;13.068;2024-02-21T03:15:03;9;9;
80413;PMS5003;69758;52.580;13.068;2024-02-21T03:17:28;14;13;
80413;PMS5003;69758;52.580;13.068;2024-02-21T03:19:54;10;10;
80413;PMS5003;69758;52.580;13.068;2024-02-21T03:22:19;13;11;
80413;PMS5003;69758;52.580;13.068;2024-02-21T03:24:45;15;15;
80413;PMS5003;69758;52.580;13.068;2024-02-21T03:27:11;16;12;
80413;PMS5003;69758;52.580;13.068;2024-02-21T03:29:37;11;10;
80413;PMS5003;69758;52.580;13.068;2024-02-21T03:32:02;10;10;
80413;PMS5003;69758;52.580;13.068;2024-02-21T03:34:28;10;10;
80413;PMS5003;69758;52.580;13.068;2024-02-21T03:36:53;10;10;
80413;PMS5003;69758;52.580;13.068;2024-02-21T03:39:18;12;11;
80413;PMS5003;69758;52.580;13.068;2024-02-21T03:41:44;13;13;
80413;PMS5003;69758;52.580;13.068;2024-02-21T03:44:09;10;9;
80413;PMS5003;69758;52.580;13.068;2024-02-21T03:46:34;7;7;
80413;PMS5003;69758;52.580;13.068;2024-02-21T03:49:00;14;12;
80413;PMS5003;69758;52.580;13.068;2024-02-21T03:51:25;12;11;
80413;PMS5003;69758;52.580;13.068;2024-02-21T03:53:50;11;11;
80413;PMS5003;69758;52.580;13.068;2024-02-21T03:56:16;14;12;
80413;PMS5003;69758;52.580;13.068;2024-02-21T03:58:41;13;12;
80413;PMS5003;69758;52.580;13.068;2024-02-21T04:01:06;13;12;
80413;PMS5003;69758;52.580;13.068;2024-02-21T04:03:32;10;9;
80413;PMS5003;69758;52.580;13.068;2024-02-21T04:05:57;11;10;
80413;PMS5003;69758;52.580;13.068;2024-02-21T04:08:23;15;12;
80413;PMS5003;69758;52.580;13.068;2024-02-21T04:10:48;11;10;
80413;PMS5003;69758;52.580;13.068;2024-02-21T04:13:13;9;7;
80413;PMS5003;69758;52.580;13.068;2024-02-21T04:15:38;10;10;
80413;PMS5003;69758;52.580;13.068;2024-02-21T04:18:04;12;11;
80413;PMS5003;69758;52.580;13.068;2024-02-21T04:20:30;10;8;
80413;PMS5003;69758;52.580;13.068;2024-02-21T04:22:55;13;10;
80413;PMS5003;69758;52.580;13.068;2024-02-21T04:25:21;10;9;
80413;PMS5003;69758;52.580;13.068;2024-02-21T04:27:46;12;12;
80413;PMS5003;69758;52.580;13.068;2024-02-21T04:30:12;10;10;
80413;PMS5003;69758;52.580;13.068;2024-02-21T04:32:38;12;12;
80413;PMS5003;69758;52.580;13.068;2024-02-21T04:35:02;12;12;
80413;PMS5003;69758;52.580;13.068;2024-02-21T04:37:27;12;11;
80413;PMS5003;69758;52.580;13.068;2024-02-21T04:39:53;15;13;
80413;PMS5003;69758;52.580;13.068;2024-02-21T04:42:18;11;11;
80413;PMS5003;69758;52.580;13.068;2024-02-21T04:44:43;11;10;
80413;PMS5003;69758;52.580;13.068;2024-02-21T04:47:09;11;9;
80413;PMS5003;69758;52.580;13.068;2024-02-21T04:49:35;11;10;
80413;PMS5003;69758;52.580;13.068;2024-02-21T04:52:00;13;12;
80413;PMS5003;69758;52.580;13.068;2024-02-21T04:54:25;12;12;
80413;PMS5003;69758;52.580;13.068;2024-02-21T04:56:51;14;13;
80413;PMS5003;69758;52.580;13.068;2024-02-21T04:59:16;12;11;
80413;PMS5003;69758;52.580;13.068;2024-02-21T05:01:41;15;12;
80413;PMS5003;69758;52.580;13.068;2024-02-21T05:04:07;10;10;
80413;PMS5003;69758;52.580;13.068;2024-02-21T05:06:36;12;12;
80413;PMS5003;69758;52.580;13.068;2024-02-21T05:08:59;11;10;
80413;PMS5003;69758;52.580;13.068;2024-02-21T05:11:24;13;11;
80413;PMS5003;69758;52.580;13.068;2024-02-21T05:13:50;11;10;
80413;PMS5003;69758;52.580;13.068;2024-02-21T05:16:15;11;10;
80413;PMS5003;69758;52.580;13.068;2024-02-21T05:18:40;14;12;
80413;PMS5003;69758;52.580;13.068;2024-02-21T05:21:06;11;11;
80413;PMS5003;69758;52.580;13.068;2024-02-21T05:23:32;14;13;
80413;PMS5003;69758;52.580;13.068;2024-02-21T05:25:57;11;11;
80413;PMS5003;69758;52.580;13.068;2024-02-21T05:28:23;12;12;
80413;PMS5003;69758;52.580;13.068;2024-02-21T05:30:48;14;13;
80413;PMS5003;69758;52.580;13.068;2024-02-21T05:33:13;13;12;
80413;PMS5003;69758;52.580;13.068;2024-02-21T05:35:39;14;12;
80413;PMS5003;69758;52.580;13.068;2024-02-21T05:38:04;12;11;
80413;PMS5003;69758;52.580;13.068;2024-02-21T05:40:29;20;17;
80413;PMS5003;69758;52.580;13.068;2024-02-21T05:42:54;14;14;
80413;PMS5003;69758;52.580;13.068;2024-02-21T05:45:19;13;12;
80413;PMS5003;69758;52.580;13.068;2024-02-21T05:47:45;10;10;
80413;PMS5003;69758;52.580;13.068;2024-02-21T05:50:11;14;13;
80413;PMS5003;69758;52.580;13.068;2024-02-21T05:52:37;11;11;
80413;PMS5003;69758;52.580;13.068;2024-02-21T05:55:03;13;13;
80413;PMS5003;69758;52.580;13.068;2024-02-21T05:57:28;14;13;
80413;PMS5003;69758;52.580;13.068;2024-02-21T05:59:54;13;12;
80413;PMS5003;69758;52.580;13.068;2024-02-21T06:02:20;15;14;
80413;PMS5003;69758;52.580;13.068;2024-02-21T06:04:46;13;12;
80413;PMS5003;69758;52.580;13.068;2024-02-21T06:07:11;17;15;
80413;PMS5003;69758;52.580;13.068;2024-02-21T06:09:36;13;13;
80413;PMS5003;69758;52.580;13.068;2024-02-21T06:12:02;13;13;
80413;PMS5003;69758;52.580;13.068;2024-02-21T06:14:27;20;17;
80413;PMS5003;69758;52.580;13.068;2024-02-21T06:16:53;15;13;
80413;PMS5003;69758;52.580;13.068;2024-02-21T06:19:19;16;16;
80413;PMS5003;69758;52.580;13.068;2024-02-21T06:21:44;19;17;
80413;PMS5003;69758;52.580;13.068;2024-02-21T06:24:09;19;16;
80413;PMS5003;69758;52.580;13.068;2024-02-21T06:26:35;17;16;
80413;PMS5003;69758;52.580;13.068;2024-02-21T06:29:00;14;14;
80413;PMS5003;69758;52.580;13.068;2024-02-21T06:31:25;15;14;
80413;PMS5003;69758;52.580;13.068;2024-02-21T06:33:51;21;21;
80413;PMS5003;69758;52.580;13.068;2024-02-21T06:36:26;16;15;
80413;PMS5003;69758;52.580;13.068;2024-02-21T06:38:42;21;20;
80413;PMS5003;69758;52.580;13.068;2024-02-21T06:43:32;21;17;
80413;PMS5003;69758;52.580;13.068;2024-02-21T06:45:58;20;19;
80413;PMS5003;69758;52.580;13.068;2024-02-21T06:48:23;17;17;
80413;PMS5003;69758;52.580;13.068;2024-02-21T06:50:49;19;15;
80413;PMS5003;69758;52.580;13.068;2024-02-21T06:53:14;16;14;
80413;PMS5003;69758;52.580;13.068;2024-02-21T06:55:39;19;17;
80413;PMS5003;69758;52.580;13.068;2024-02-21T06:58:04;16;15;
80413;PMS5003;69758;52.580;13.068;2024-02-21T07:00:30;16;15;
80413;PMS5003;69758;52.580;13.068;2024-02-21T07:02:56;15;15;
80413;PMS5003;69758;52.580;13.068;2024-02-21T07:05:21;16;16;
80413;PMS5003;69758;52.580;13.068;2024-02-21T07:07:47;17;15;
80413;PMS5003;69758;52.580;13.068;2024-02-21T07:10:12;16;15;
80413;PMS5003;69758;52.580;13.068;2024-02-21T07:12:37;16;15;
80413;PMS5003;69758;52.580;13.068;2024-02-21T07:15:02;18;17;
80413;PMS5003;69758;52.580;13.068;2024-02-21T07:17:28;20;20;
80413;PMS5003;69758;52.580;13.068;2024-02-21T07:19:53;17;16;
80413;PMS5003;69758;52.580;13.068;2024-02-21T07:22:19;24;23;
80413;PMS5003;69758;52.580;13.068;2024-02-21T07:24:44;17;15;
80413;PMS5003;69758;52.580;13.068;2024-02-21T07:27:09;19;17;
80413;PMS5003;69758;52.580;13.068;2024-02-21T07:29:35;13;12;
80413;PMS5003;69758;52.580;13.068;2024-02-21T07:32:01;14;14;
80413;PMS5003;69758;52.580;13.068;2024-02-21T07:34:26;16;15;
80413;PMS5003;69758;52.580;13.068;2024-02-21T07:36:51;14;13;
80413;PMS5003;69758;52.580;13.068;2024-02-21T07:39:16;17;12;
80413;PMS5003;69758;52.580;13.068;2024-02-21T07:41:42;15;15;
80413;PMS5003;69758;52.580;13.068;2024-02-21T07:44:08;16;16;
80413;PMS5003;69758;52.580;13.068;2024-02-21T07:46:33;18;16;
80413;PMS5003;69758;52.580;13.068;2024-02-21T07:49:00;18;16;
80413;PMS5003;69758;52.580;13.068;2024-02-21T07:51:27;13;13;
80413;PMS5003;69758;52.580;13.068;2024-02-21T07:53:49;13;13;
80413;PMS5003;69758;52.580;13.068;2024-02-21T07:56:15;15;14;
80413;PMS5003;69758;52.580;13.068;2024-02-21T07:58:40;15;14;
80413;PMS5003;69758;52.580;13.068;2024-02-21T08:01:06;14;14;
80413;PMS5003;69758;52.580;13.068;2024-02-21T08:03:31;16;16;
80413;PMS5003;69758;52.580;13.068;2024-02-21T08:05:57;15;13;
80413;PMS5003;69758;52.580;13.068;2024-02-21T08:08:22;13;13;
80413;PMS5003;69758;52.580;13.068;2024-02-21T08:10:49;13;13;
80413;PMS5003;69758;52.580;13.068;2024-02-21T08:13:13;14;14;
80413;PMS5003;69758;52.580;13.068;2024-02-21T08:15:39;16;15;
80413;PMS5003;69758;52.580;13.068;2024-02-21T08:18:04;13;12;
80413;PMS5003;69758;52.580;13.068;2024-02-21T08:20:30;13;13;
80413;PMS5003;69758;52.580;13.068;2024-02-21T08:22:55;16;16;
80413;PMS5003;69758;52.580;13.068;2024-02-21T08:25:21;22;21;
80413;PMS5003;69758;52.580;13.068;2024-02-21T08:27:46;15;15;
80413;PMS5003;69758;52.580;13.068;2024-02-21T08:30:12;19;18;
80413;PMS5003;69758;52.580;13.068;2024-02-21T08:32:38;16;14;
80413;PMS5003;69758;52.580;13.068;2024-02-21T08:35:03;14;14;
80413;PMS5003;69758;52.580;13.068;2024-02-21T08:37:28;19;16;
80413;PMS5003;69758;52.580;13.068;2024-02-21T08:39:53;19;16;
80413;PMS5003;69758;52.580;13.068;2024-02-21T08:42:19;14;13;
80413;PMS5003;69758;52.580;13.068;2024-02-21T08:44:45;13;13;
80413;PMS5003;69758;52.580;13.068;2024-02-21T08:47:10;17;15;
80413;PMS5003;69758;52.580;13.068;2024-02-21T08:49:35;14;12;
80413;PMS5003;69758;52.580;13.068;2024-02-21T08:52:01;16;16;
80413;PMS5003;69758;52.580;13.068;2024-02-21T08:54:26;16;15;
80413;PMS5003;69758;52.580;13.068;2024-02-21T08:56:52;17;17;
80413;PMS5003;69758;52.580;13.068;2024-02-21T08:59:17;16;15;
80413;PMS5003;69758;52.580;13.068;2024-02-21T09:01:43;15;15;
80413;PMS5003;69758;52.580;13.068;2024-02-21T09:04:08;16;15;
80413;PMS5003;69758;52.580;13.068;2024-02-21T09:06:33;21;18;
80413;PMS5003;69758;52.580;13.068;2024-02-21T09:08:58;17;16;
80413;PMS5003;69758;52.580;13.068;2024-02-21T09:11:23;17;16;
80413;PMS5003;69758;52.580;13.068;2024-02-21T09:13:49;16;15;
80413;PMS5003;69758;52.580;13.068;2024-02-21T09:16:15;22;19;
80413;PMS5003;69758;52.580;13.068;2024-02-21T09:18:40;18;18;
80413;PMS5003;69758;52.580;13.068;2024-02-21T09:21:06;20;17;
80413;PMS5003;69758;52.580;13.068;2024-02-21T09:23:31;17;15;
80413;PMS5003;69758;52.580;13.068;2024-02-21T09:25:56;15;14;
80413;PMS5003;69758;52.580;13.068;2024-02-21T09:28:22;22;20;
80413;PMS5003;69758;52.580;13.068;2024-02-21T09:30:47;23;23;
80413;PMS5003;69758;52.580;13.068;2024-02-21T09:33:13;18;18;
80413;PMS5003;69758;52.580;13.068;2024-02-21T09:35:39;25;23;
80413;PMS5003;69758;52.580;13.068;2024-02-21T09:38:03;17;15;
80413;PMS5003;69758;52.580;13.068;2024-02-21T09:40:29;17;16;
80413;PMS5003;69758;52.580;13.068;2024-02-21T09:42:56;24;21;
80413;PMS5003;69758;52.580;13.068;2024-02-21T09:45:20;19;18;
80413;PMS5003;69758;52.580;13.068;2024-02-21T09:47:49;17;16;
80413;PMS5003;69758;52.580;13.068;2024-02-21T09:50:11;21;20;
80413;PMS5003;69758;52.580;13.068;2024-02-21T09:52:37;18;18;
80413;PMS5003;69758;52.580;13.068;2024-02-21T09:55:03;23;20;
80413;PMS5003;69758;52.580;13.068;2024-02-21T09:57:28;14;14;
80413;PMS5003;69758;52.580;13.068;2024-02-21T09:59:54;20;17;
80413;PMS5003;69758;52.580;13.068;2024-02-21T10:02:19;21;18;
80413;PMS5003;69758;52.580;13.068;2024-02-21T10:04:44;17;16;
80413;PMS5003;69758;52.580;13.068;2024-02-21T10:07:10;15;15;
80413;PMS5003;69758;52.580;13.068;2024-02-21T10:09:35;18;17;
80413;PMS5003;69758;52.580;13.068;2024-02-21T10:12:07;19;17;
80413;PMS5003;69758;52.580;13.068;2024-02-21T10:14:26;16;15;
80413;PMS5003;69758;52.580;13.068;2024-02-21T10:16:56;18;16;
80413;PMS5003;69758;52.580;13.068;2024-02-21T10:19:17;17;16;
80413;PMS5003;69758;52.580;13.068;2024-02-21T10:21:42;16;15;
80413;PMS5003;69758;52.580;13.068;2024-02-21T10:24:08;16;14;
80413;PMS5003;69758;52.580;13.068;2024-02-21T10:26:33;19;17;
80413;PMS5003;69758;52.580;13.068;2024-02-21T10:28:59;14;14;
80413;PMS5003;69758;52.580;13.068;2024-02-21T10:31:24;16;15;
80413;PMS5003;69758;52.580;13.068;2024-02-21T10:33:53;15;15;
80413;PMS5003;69758;52.580;13.068;2024-02-21T10:36:15;14;14;
80413;PMS5003;69758;52.580;13.068;2024-02-21T10:38:41;16;14;
80413;PMS5003;69758;52.580;13.068;2024-02-21T10:41:07;16;16;
80413;PMS5003;69758;52.580;13.068;2024-02-21T10:43:35;9;9;
80413;PMS5003;69758;52.580;13.068;2024-02-21T10:45:58;18;17;
80413;PMS5003;69758;52.580;13.068;2024-02-21T10:48:24;16;16;
80413;PMS5003;69758;52.580;13.068;2024-02-21T10:50:52;14;13;
80413;PMS5003;69758;52.580;13.068;2024-02-21T10:53:15;14;13;
80413;PMS5003;69758;52.580;13.068;2024-02-21T10:55:38;14;14;
80413;PMS5003;69758;52.580;13.068;2024-02-21T10:58:03;16;14;
80413;PMS5003;69758;52.580;13.068;2024-02-21T11:00:28;15;15;
80413;PMS5003;69758;52.580;13.068;2024-02-21T11:02:54;14;11;
80413;PMS5003;69758;52.580;13.068;2024-02-21T11:05:20;16;15;
80413;PMS5003;69758;52.580;13.068;2024-02-21T11:07:45;13;12;
80413;PMS5003;69758;52.580;13.068;2024-02-21T11:12:36;11;11;
80413;PMS5003;69758;52.580;13.068;2024-02-21T11:15:03;14;13;
80413;PMS5003;69758;52.580;13.068;2024-02-21T11:17:27;10;10;
80413;PMS5003;69758;52.580;13.068;2024-02-21T11:19:53;12;11;
80413;PMS5003;69758;52.580;13.068;2024-02-21T11:22:18;11;9;
80413;PMS5003;69758;52.580;13.068;2024-02-21T11:24:43;10;10;
80413;PMS5003;69758;52.580;13.068;2024-02-21T11:27:09;10;9;
80413;PMS5003;69758;52.580;13.068;2024-02-21T11:29:39;10;10;
80413;PMS5003;69758;52.580;13.068;2024-02-21T11:32:00;11;11;
80413;PMS5003;69758;52.580;13.068;2024-02-21T11:34:25;8;8;
80413;PMS5003;69758;52.580;13.068;2024-02-21T11:36:51;10;10;
80413;PMS5003;69758;52.580;13.068;2024-02-21T11:39:20;9;8;
80413;PMS5003;69758;52.580;13.068;2024-02-21T11:41:42;11;11;
80413;PMS5003;69758;52.580;13.068;2024-02-21T11:44:07;10;10;
80413;PMS5003;69758;52.580;13.068;2024-02-21T11:46:32;9;9;
80413;PMS5003;69758;52.580;13.068;2024-02-21T11:48:58;8;8;
80413;PMS5003;69758;52.580;13.068;2024-02-21T11:51:24;8;8;
80413;PMS5003;69758;52.580;13.068;2024-02-21T11:53:49;10;8;
80413;PMS5003;69758;52.580;13.068;2024-02-21T11:56:14;9;9;
80413;PMS5003;69758;52.580;13.068;2024-02-21T11:58:40;9;8;
80413;PMS5003;69758;52.580;13.068;2024-02-21T12:01:05;7;7;
80413;PMS5003;69758;52.580;13.068;2024-02-21T12:03:30;8;8;
80413;PMS5003;69758;52.580;13.068;2024-02-21T12:05:56;10;10;
80413;PMS5003;69758;52.580;13.068;2024-02-21T12:08:21;10;10;
80413;PMS5003;69758;52.580;13.068;2024-02-21T12:10:46;10;10;
80413;PMS5003;69758;52.580;13.068;2024-02-21T12:13:12;7;7;
80413;PMS5003;69758;52.580;13.068;2024-02-21T12:15:38;8;8;
80413;PMS5003;69758;52.580;13.068;2024-02-21T12:18:03;9;9;
80413;PMS5003;69758;52.580;13.068;2024-02-21T12:20:29;9;9;
80413;PMS5003;69758;52.580;13.068;2024-02-21T12:22:54;9;9;
80413;PMS5003;69758;52.580;13.068;2024-02-21T12:25:20;6;6;
80413;PMS5003;69758;52.580;13.068;2024-02-21T12:27:45;7;7;
80413;PMS5003;69758;52.580;13.068;2024-02-21T12:30:10;11;10;
80413;PMS5003;69758;52.580;13.068;2024-02-21T12:32:35;10;9;
80413;PMS5003;69758;52.580;13.068;2024-02-21T12:35:00;11;9;
80413;PMS5003;69758;52.580;13.068;2024-02-21T12:37:25;8;7;
80413;PMS5003;69758;52.580;13.068;2024-02-21T12:39:50;9;8;
80413;PMS5003;69758;52.580;13.068;2024-02-21T12:42:16;6;6;
80413;PMS5003;69758;52.580;13.068;2024-02-21T12:44:41;7;7;
80413;PMS5003;69758;52.580;13.068;2024-02-21T12:47:06;7;7;
80413;PMS5003;69758;52.580;13.068;2024-02-21T12:49:31;6;6;
80413;PMS5003;69758;52.580;13.068;2024-02-21T12:51:57;10;10;
80413;PMS5003;69758;52.580;13.068;2024-02-21T12:54:23;9;9;
80413;PMS5003;69758;52.580;13.068;2024-02-21T12:56:48;7;7;
80413;PMS5003;69758;52.580;13.068;2024-02-21T12:59:14;5;5;
80413;PMS5003;69758;52.580;13.068;2024-02-21T13:01:39;8;6;
80413;PMS5003;69758;52.580;13.068;2024-02-21T13:04:04;8;8;
80413;PMS5003;69758;52.580;13.068;2024-02-21T13:06:29;5;5;
80413;PMS5003;69758;52.580;13.068;2024-02-21T13:08:54;5;5;
80413;PMS5003;69758;52.580;13.068;2024-02-21T13:11:20;7;6;
80413;PMS5003;69758;52.580;13.068;2024-02-21T13:13:45;8;8;
80413;PMS5003;69758;52.580;13.068;2024-02-21T13:16:10;7;7;
80413;PMS5003;69758;52.580;13.068;2024-02-21T13:18:35;6;6;
80413;PMS5003;69758;52.580;13.068;2024-02-21T13:21:01;7;6;
80413;PMS5003;69758;52.580;13.068;2024-02-21T13:23:26;7;7;
80413;PMS5003;69758;52.580;13.068;2024-02-21T13:25:51;7;6;
80413;PMS5003;69758;52.580;13.068;2024-02-21T13:28:16;6;6;
80413;PMS5003;69758;52.580;13.068;2024-02-21T13:30:42;8;7;
80413;PMS5003;69758;52.580;13.068;2024-02-21T13:33:07;6;6;
80413;PMS5003;69758;52.580;13.068;2024-02-21T13:35:32;7;7;
80413;PMS5003;69758;52.580;13.068;2024-02-21T13:37:57;6;6;
80413;PMS5003;69758;52.580;13.068;2024-02-21T13:40:22;8;7;
80413;PMS5003;69758;52.580;13.068;2024-02-21T13:42:48;6;6;
80413;PMS5003;69758;52.580;13.068;2024-02-21T13:45:14;10;9;
80413;PMS5003;69758;52.580;13.068;2024-02-21T13:47:39;7;7;
80413;PMS5003;69758;52.580;13.068;2024-02-21T13:50:04;7;7;
80413;PMS5003;69758;52.580;13.068;2024-02-21T13:52:29;8;8;
80413;PMS5003;69758;52.580;13.068;2024-02-21T13:54:54;7;7;
80413;PMS5003;69758;52.580;13.068;2024-02-21T13:57:20;5;5;
80413;PMS5003;69758;52.580;13.068;2024-02-21T13:59:45;8;8;
80413;PMS5003;69758;52.580;13.068;2024-02-21T14:02:10;9;9;
80413;PMS5003;69758;52.580;13.068;2024-02-21T14:04:36;12;11;
80413;PMS5003;69758;52.580;13.068;2024-02-21T14:07:01;10;10;
80413;PMS5003;69758;52.580;13.068;2024-02-21T14:09:27;10;10;
80413;PMS5003;69758;52.580;13.068;2024-02-21T14:11:52;7;7;
80413;PMS5003;69758;52.580;13.068;2024-02-21T14:14:17;8;8;
80413;PMS5003;69758;52.580;13.068;2024-02-21T14:16:42;7;6;
80413;PMS5003;69758;52.580;13.068;2024-02-21T14:19:07;6;6;
80413;PMS5003;69758;52.580;13.068;2024-02-21T14:21:33;4;4;
80413;PMS5003;69758;52.580;13.068;2024-02-21T14:23:58;6;6;
80413;PMS5003;69758;52.580;13.068;2024-02-21T14:26:23;6;5;
80413;PMS5003;69758;52.580;13.068;2024-02-21T14:28:48;7;7;
80413;PMS5003;69758;52.580;13.068;2024-02-21T14:31:14;5;4;
80413;PMS5003;69758;52.580;13.068;2024-02-21T14:33:39;6;6;
80413;PMS5003;69758;52.580;13.068;2024-02-21T14:36:05;5;4;
80413;PMS5003;69758;52.580;13.068;2024-02-21T14:38:30;5;4;
80413;PMS5003;69758;52.580;13.068;2024-02-21T14:40:55;4;4;
80413;PMS5003;69758;52.580;13.068;2024-02-21T14:43:20;5;4;
80413;PMS5003;69758;52.580;13.068;2024-02-21T14:45:46;4;4;
80413;PMS5003;69758;52.580;13.068;2024-02-21T14:48:11;6;6;
80413;PMS5003;69758;52.580;13.068;2024-02-21T14:50:36;5;4;
80413;PMS5003;69758;52.580;13.068;2024-02-21T14:53:01;5;5;
80413;PMS5003;69758;52.580;13.068;2024-02-21T14:55:27;5;5;
80413;PMS5003;69758;52.580;13.068;2024-02-21T14:57:52;6;5;
80413;PMS5003;69758;52.580;13.068;2024-02-21T15:00:17;5;5;
80413;PMS5003;69758;52.580;13.068;2024-02-21T15:02:42;5;5;
80413;PMS5003;69758;52.580;13.068;2024-02-21T15:05:08;6;6;
80413;PMS5003;69758;52.580;13.068;2024-02-21T15:07:33;4;4;
80413;PMS5003;69758;52.580;13.068;2024-02-21T15:09:58;4;4;
80413;PMS5003;69758;52.580;13.068;2024-02-21T15:12:24;7;7;
80413;PMS5003;69758;52.580;13.068;2024-02-21T15:14:49;6;4;
80413;PMS5003;69758;52.580;13.068;2024-02-21T15:17:19;7;6;
80413;PMS5003;69758;52.580;13.068;2024-02-21T15:19:40;8;8;
80413;PMS5003;69758;52.580;13.068;2024-02-21T15:22:05;7;7;
80413;PMS5003;69758;52.580;13.068;2024-02-21T15:24:31;4;4;
80413;PMS5003;69758;52.580;13.068;2024-02-21T15:26:56;5;5;
80413;PMS5003;69758;52.580;13.068;2024-02-21T15:29:21;10;7;
80413;PMS5003;69758;52.580;13.068;2024-02-21T15:31:46;5;5;
80413;PMS5003;69758;52.580;13.068;2024-02-21T15:34:12;5;5;
80413;PMS5003;69758;52.580;13.068;2024-02-21T15:36:37;4;4;
80413;PMS5003;69758;52.580;13.068;2024-02-21T15:39:02;4;4;
80413;PMS5003;69758;52.580;13.068;2024-02-21T15:41:27;5;5;
80413;PMS5003;69758;52.580;13.068;2024-02-21T15:43:52;5;5;
80413;PMS5003;69758;52.580;13.068;2024-02-21T15:46:18;6;5;
80413;PMS5003;69758;52.580;13.068;2024-02-21T15:48:44;5;5;
80413;PMS5003;69758;52.580;13.068;2024-02-21T15:51:08;5;5;
80413;PMS5003;69758;52.580;13.068;2024-02-21T15:53:33;5;5;
80413;PMS5003;69758;52.580;13.068;2024-02-21T15:55:59;5;5;
80413;PMS5003;69758;52.580;13.068;2024-02-21T15:58:24;6;6;
80413;PMS5003;69758;52.580;13.068;2024-02-21T16:00:49;6;6;
80413;PMS5003;69758;52.580;13.068;2024-02-21T16:03:15;10;8;
80413;PMS5003;69758;52.580;13.068;2024-02-21T16:05:40;14;12;